createdAt,value
2022-11-14T00:00:55.936Z,10.53
2022-11-14T00:03:22.667Z,10.73
2022-11-14T00:05:49.369Z,9.90
2022-11-14T00:08:22.444Z,12.10
2022-11-14T00:10:50.803Z,10.50
2022-11-14T00:13:19.506Z,10.73
2022-11-14T00:15:50.267Z,10.10
2022-11-14T00:18:17.638Z,12.10
2022-11-14T00:20:44.736Z,13.40
2022-11-14T00:23:11.404Z,11.60
2022-11-14T00:25:38.040Z,10.23
2022-11-14T00:28:04.894Z,9.40
2022-11-14T00:30:31.707Z,10.53
2022-11-14T00:32:58.346Z,9.10
2022-11-14T00:35:25.425Z,10.47
2022-11-14T00:37:52.152Z,11.13
2022-11-14T00:40:18.901Z,9.33
2022-11-14T00:42:46.032Z,12.37
2022-11-14T00:45:12.898Z,10.73
2022-11-14T00:47:40.149Z,9.63
2022-11-14T00:50:07.516Z,11.10
2022-11-14T00:52:34.170Z,10.87
2022-11-14T00:55:01.289Z,10.40
2022-11-14T00:57:30.827Z,12.97
2022-11-14T00:59:57.584Z,9.70
2022-11-14T01:02:24.872Z,9.67
2022-11-14T01:04:51.600Z,10.63
2022-11-14T01:07:18.438Z,11.60
2022-11-14T01:09:45.096Z,10.37
2022-11-14T01:12:11.815Z,8.27
2022-11-14T01:14:40.035Z,9.87
2022-11-14T01:17:07.034Z,10.73
2022-11-14T01:19:33.772Z,8.27
2022-11-14T01:22:05.925Z,10.93
2022-11-14T01:24:34.329Z,8.73
2022-11-14T01:27:01.657Z,9.73
2022-11-14T01:29:28.963Z,8.37
2022-11-14T01:31:56.116Z,12.10
2022-11-14T01:34:23.369Z,11.07
2022-11-14T01:36:50.084Z,8.20
2022-11-14T01:39:16.804Z,9.40
2022-11-14T01:41:43.896Z,9.20
2022-11-14T01:44:18.219Z,8.77
2022-11-14T01:46:55.271Z,9.77
2022-11-14T01:49:26.976Z,10.90
2022-11-14T01:52:02.136Z,13.10
2022-11-14T01:54:41.563Z,10.10
2022-11-14T01:57:10.239Z,8.67
2022-11-14T01:59:42.531Z,10.63
2022-11-14T02:02:18.948Z,9.00
2022-11-14T02:04:50.947Z,11.20
2022-11-14T02:07:18.208Z,9.27
2022-11-14T02:09:48.475Z,11.40
2022-11-14T02:12:18.164Z,8.40
2022-11-14T02:14:47.702Z,9.00
2022-11-14T02:17:31.929Z,8.17
2022-11-14T02:20:11.523Z,9.57
2022-11-14T02:22:42.440Z,10.07
2022-11-14T02:25:10.621Z,10.90
2022-11-14T02:27:39.396Z,9.93
2022-11-14T02:30:10.139Z,12.30
2022-11-14T02:33:08.974Z,8.43
2022-11-14T02:35:24.314Z,9.73
2022-11-14T02:37:50.979Z,12.33
2022-11-14T02:40:18.067Z,9.00
2022-11-14T02:42:44.760Z,8.93
2022-11-14T02:45:12.611Z,9.17
2022-11-14T02:47:39.650Z,9.13
2022-11-14T02:50:06.834Z,10.57
2022-11-14T02:52:33.477Z,12.80
2022-11-14T02:55:00.597Z,9.53
2022-11-14T02:57:27.223Z,10.53
2022-11-14T02:59:54.288Z,10.57
2022-11-14T03:02:21.331Z,10.77
2022-11-14T03:04:48.374Z,10.30
2022-11-14T03:07:15.541Z,9.20
2022-11-14T03:09:42.254Z,10.43
2022-11-14T03:12:09.666Z,9.90
2022-11-14T03:14:36.732Z,8.20
2022-11-14T03:17:03.452Z,9.20
2022-11-14T03:19:30.072Z,10.10
2022-11-14T03:21:56.698Z,9.70
2022-11-14T03:24:23.327Z,8.33
2022-11-14T03:26:50.373Z,10.53
2022-11-14T03:29:17.071Z,9.17
2022-11-14T03:31:43.728Z,10.00
2022-11-14T03:34:10.812Z,8.37
2022-11-14T03:36:37.764Z,9.30
2022-11-14T03:39:05.291Z,10.73
2022-11-14T03:41:32.312Z,9.03
2022-11-14T03:43:58.992Z,11.00
2022-11-14T03:46:25.617Z,8.13
2022-11-14T03:48:52.324Z,7.93
2022-11-14T03:51:19.393Z,11.27
2022-11-14T03:53:46.519Z,8.33
2022-11-14T03:56:13.586Z,11.70
2022-11-14T03:58:40.233Z,7.23
2022-11-14T04:01:07.380Z,9.77
2022-11-14T04:03:34.050Z,8.07
2022-11-14T04:06:01.098Z,7.10
2022-11-14T04:08:28.079Z,8.10
2022-11-14T04:10:55.010Z,8.93
2022-11-14T04:13:22.038Z,7.50
2022-11-14T04:15:57.953Z,7.13
2022-11-14T04:18:26.414Z,6.90
2022-11-14T04:20:53.336Z,6.83
2022-11-14T04:23:20.389Z,9.70
2022-11-14T04:25:47.411Z,8.30
2022-11-14T04:28:14.543Z,9.20
2022-11-14T04:30:42.095Z,7.73
2022-11-14T04:33:08.771Z,6.63
2022-11-14T04:35:35.418Z,6.43
2022-11-14T04:38:02.245Z,7.97
2022-11-14T04:40:29.360Z,8.93
2022-11-14T04:42:56.006Z,6.63
2022-11-14T04:45:23.125Z,7.83
2022-11-14T04:47:49.810Z,10.30
2022-11-14T04:50:16.487Z,8.27
2022-11-14T04:52:43.680Z,8.63
2022-11-14T04:55:10.399Z,8.50
2022-11-14T04:57:37.115Z,8.87
2022-11-14T05:00:05.403Z,6.80
2022-11-14T05:02:32.954Z,7.73
2022-11-14T05:05:00.020Z,7.33
2022-11-14T05:07:27.161Z,7.50
2022-11-14T05:09:54.238Z,7.80
2022-11-14T05:12:21.273Z,8.53
2022-11-14T05:14:48.753Z,6.40
2022-11-14T05:17:15.465Z,7.53
2022-11-14T05:19:42.499Z,8.67
2022-11-14T05:22:09.546Z,8.13
2022-11-14T05:24:36.601Z,7.30
2022-11-14T05:27:03.396Z,8.30
2022-11-14T05:29:30.028Z,8.07
2022-11-14T05:31:58.012Z,5.73
2022-11-14T05:34:25.473Z,10.40
2022-11-14T05:36:52.158Z,6.97
2022-11-14T05:39:19.258Z,7.73
2022-11-14T05:41:45.974Z,9.37
2022-11-14T05:44:12.587Z,8.93
2022-11-14T05:46:39.711Z,9.17
2022-11-14T05:49:06.752Z,7.03
2022-11-14T05:51:33.789Z,7.53
2022-11-14T05:54:00.863Z,8.97
2022-11-14T05:56:28.029Z,7.83
2022-11-14T05:58:54.693Z,10.20
2022-11-14T06:01:21.485Z,7.77
2022-11-14T06:03:49.220Z,10.60
2022-11-14T06:06:18.177Z,8.30
2022-11-14T06:08:45.293Z,9.43
2022-11-14T06:11:14.804Z,10.27
2022-11-14T06:13:42.154Z,11.83
2022-11-14T06:16:14.621Z,7.60
2022-11-14T06:18:41.567Z,8.40
2022-11-14T06:21:13.817Z,9.03
2022-11-14T06:23:40.563Z,7.93
2022-11-14T06:26:20.912Z,11.17
2022-11-14T06:28:49.371Z,8.43
2022-11-14T06:31:16.926Z,7.83
2022-11-14T06:33:43.663Z,8.47
2022-11-14T06:36:11.150Z,7.87
2022-11-14T06:38:39.789Z,9.70
2022-11-14T06:41:07.206Z,10.03
2022-11-14T06:43:38.016Z,8.30
2022-11-14T06:46:05.865Z,7.87
2022-11-14T06:48:33.074Z,9.60
2022-11-14T06:51:00.939Z,11.90
2022-11-14T06:53:32.718Z,11.10
2022-11-14T06:56:01.797Z,9.93
2022-11-14T06:58:30.847Z,11.83
2022-11-14T07:01:02.849Z,11.07
2022-11-14T07:03:30.027Z,9.33
2022-11-14T07:06:03.824Z,10.73
2022-11-14T07:08:31.728Z,11.23
2022-11-14T07:11:06.102Z,88.77
2022-11-14T07:13:33.932Z,39.07
2022-11-14T07:16:01.179Z,25.47
2022-11-14T07:18:31.418Z,25.00
2022-11-14T07:21:03.700Z,35.57
2022-11-14T07:23:31.401Z,33.23
2022-11-14T07:26:09.622Z,10.33
2022-11-14T07:28:37.802Z,10.53
2022-11-14T07:31:06.309Z,9.60
2022-11-14T07:33:33.649Z,10.70
2022-11-14T07:36:00.412Z,10.27
2022-11-14T07:38:27.822Z,8.80
2022-11-14T07:41:06.346Z,10.70
2022-11-14T07:43:32.999Z,9.57
2022-11-14T07:46:01.178Z,9.63
2022-11-14T07:48:29.150Z,10.57
2022-11-14T07:51:03.799Z,11.43
2022-11-14T07:53:31.230Z,10.30
2022-11-14T07:56:03.070Z,11.30
2022-11-14T07:58:29.965Z,11.10
2022-11-14T08:00:57.274Z,11.87
2022-11-14T08:03:24.385Z,12.90
2022-11-14T08:06:04.193Z,12.90
2022-11-14T08:08:31.442Z,12.33
2022-11-14T08:10:59.427Z,15.47
2022-11-14T08:13:34.166Z,14.90
2022-11-14T08:16:12.771Z,12.63
2022-11-14T08:18:40.845Z,12.43
2022-11-14T08:21:07.933Z,12.83
2022-11-14T08:23:34.624Z,14.23
2022-11-14T08:26:01.256Z,13.27
2022-11-14T08:28:28.424Z,13.83
2022-11-14T08:31:04.784Z,15.07
2022-11-14T08:33:32.225Z,16.23
2022-11-14T08:36:06.931Z,20.27
2022-11-14T08:38:34.728Z,15.67
2022-11-14T08:41:01.830Z,20.67
2022-11-14T08:43:28.909Z,18.97
2022-11-14T08:46:05.934Z,19.23
2022-11-14T08:48:33.783Z,19.10
2022-11-14T08:51:05.680Z,20.03
2022-11-14T08:53:33.226Z,22.43
2022-11-14T08:56:00.960Z,23.20
2022-11-14T08:58:30.370Z,21.73
2022-11-14T09:01:06.301Z,26.00
2022-11-14T09:03:34.104Z,25.00
2022-11-14T09:06:01.277Z,24.50
2022-11-14T09:08:28.687Z,24.97
2022-11-14T09:10:56.034Z,23.60
2022-11-14T09:13:22.749Z,24.93
2022-11-14T09:15:49.507Z,24.63
2022-11-14T09:18:16.256Z,27.43
2022-11-14T09:20:42.965Z,25.53
2022-11-14T09:23:09.978Z,26.47
2022-11-14T09:25:37.250Z,26.87
2022-11-14T09:28:06.477Z,26.90
2022-11-14T09:30:34.069Z,26.90
2022-11-14T09:33:05.655Z,27.03
2022-11-14T09:35:37.774Z,25.97
2022-11-14T09:38:06.695Z,26.83
2022-11-14T09:40:59.557Z,27.27
2022-11-14T09:43:47.462Z,27.30
2022-11-14T09:46:24.624Z,24.90
2022-11-14T09:48:52.624Z,29.17
2022-11-14T09:51:25.494Z,23.50
2022-11-14T09:54:20.713Z,26.53
2022-11-14T09:56:47.413Z,24.30
2022-11-14T09:59:15.170Z,30.40
2022-11-14T10:01:49.254Z,25.83
2022-11-14T10:04:23.959Z,22.97
2022-11-14T10:07:18.042Z,26.20
2022-11-14T10:09:51.322Z,24.80
2022-11-14T10:12:20.666Z,26.43
2022-11-14T10:15:13.076Z,26.00
2022-11-14T10:18:25.210Z,26.00
2022-11-14T10:20:55.319Z,25.20
2022-11-14T10:24:00.674Z,24.13
2022-11-14T10:26:30.186Z,23.90
2022-11-14T10:29:24.130Z,25.83
2022-11-14T10:32:21.910Z,23.07
2022-11-14T10:35:04.651Z,29.03
2022-11-14T10:38:05.606Z,23.80
2022-11-14T10:40:47.881Z,22.13
2022-11-14T10:43:33.705Z,24.80
2022-11-14T10:46:05.677Z,26.47
2022-11-14T10:48:39.811Z,24.77
2022-11-14T10:51:30.521Z,23.00
2022-11-14T10:54:00.780Z,21.60
2022-11-14T10:56:27.492Z,22.13
2022-11-14T10:58:54.543Z,21.80
2022-11-14T11:01:35.255Z,23.50
2022-11-14T11:04:29.444Z,22.40
2022-11-14T11:07:06.978Z,20.83
2022-11-14T11:09:57.746Z,22.30
2022-11-14T11:12:43.700Z,20.27
2022-11-14T11:15:31.887Z,20.47
2022-11-14T11:18:05.226Z,23.00
2022-11-14T11:20:40.967Z,20.00
2022-11-14T11:23:20.151Z,20.90
2022-11-14T11:25:58.575Z,20.97
2022-11-14T11:28:25.305Z,21.90
2022-11-14T11:31:04.534Z,21.07
2022-11-14T11:33:33.987Z,20.83
2022-11-14T11:36:05.220Z,19.43
2022-11-14T11:38:34.096Z,23.00
2022-11-14T11:41:15.627Z,21.90
2022-11-14T11:44:00.752Z,20.93
2022-11-14T11:46:51.536Z,23.10
2022-11-14T11:49:38.039Z,21.93
2022-11-14T11:52:24.058Z,24.60
2022-11-14T11:54:59.518Z,26.40
2022-11-14T11:57:36.729Z,23.67
2022-11-14T12:00:14.890Z,27.07
2022-11-14T12:02:49.475Z,24.43
2022-11-14T12:06:02.153Z,23.27
2022-11-14T12:09:12.889Z,24.53
2022-11-14T12:11:43.920Z,24.40
2022-11-14T12:14:28.189Z,28.47
2022-11-14T12:17:20.503Z,24.90
2022-11-14T12:19:58.930Z,27.40
2022-11-14T12:22:49.067Z,27.90
2022-11-14T12:25:39.598Z,29.63
2022-11-14T12:28:24.370Z,26.33
2022-11-14T12:30:57.540Z,27.37
2022-11-14T12:33:26.871Z,26.03
2022-11-14T12:35:57.904Z,24.47
2022-11-14T12:38:27.148Z,26.93
2022-11-14T12:40:57.202Z,25.03
2022-11-14T12:43:41.847Z,26.33
2022-11-14T12:46:11.615Z,24.33
2022-11-14T12:48:40.848Z,24.73
2022-11-14T12:51:25.640Z,25.33
2022-11-14T12:53:54.019Z,21.80
2022-11-14T12:56:26.723Z,30.33
2022-11-14T12:59:17.549Z,24.33
2022-11-14T13:01:53.387Z,24.50
2022-11-14T13:05:17.453Z,23.23
2022-11-14T13:08:02.690Z,27.37
2022-11-14T13:10:40.427Z,24.73
2022-11-14T13:13:33.207Z,25.03
2022-11-14T13:16:21.210Z,21.07
2022-11-14T13:19:20.916Z,26.60
2022-11-14T13:22:12.122Z,22.03
2022-11-14T13:25:03.852Z,19.60
2022-11-14T13:28:05.173Z,20.57
2022-11-14T13:31:00.874Z,20.67
2022-11-14T13:34:00.209Z,23.80
2022-11-14T13:36:34.068Z,21.40
2022-11-14T13:39:38.255Z,24.20
2022-11-14T13:42:28.198Z,21.97
2022-11-14T13:45:22.662Z,22.33
2022-11-14T13:48:07.825Z,22.77
2022-11-14T13:50:40.393Z,22.50
2022-11-14T13:53:17.192Z,23.23
2022-11-14T13:56:02.702Z,21.30
2022-11-14T13:58:47.848Z,20.80
2022-11-14T14:01:52.479Z,21.63
2022-11-14T14:05:05.863Z,25.27
2022-11-14T14:08:01.649Z,21.50
2022-11-14T14:10:42.371Z,23.03
2022-11-14T14:13:26.581Z,20.80
2022-11-14T14:16:01.359Z,22.33
2022-11-14T14:18:44.456Z,22.43
2022-11-14T14:21:22.904Z,21.70
2022-11-14T14:24:13.483Z,23.07
2022-11-14T14:26:58.653Z,20.77
2022-11-14T14:29:30.741Z,21.23
2022-11-14T14:32:17.079Z,21.57
2022-11-14T14:34:44.995Z,23.07
2022-11-14T14:37:18.228Z,20.70
2022-11-14T14:39:56.985Z,20.30
2022-11-14T14:42:24.614Z,19.27
2022-11-14T14:44:51.764Z,21.67
2022-11-14T14:47:41.948Z,22.23
2022-11-14T14:50:19.940Z,20.13
2022-11-14T14:52:47.142Z,21.10
2022-11-14T14:55:50.610Z,22.20
2022-11-14T14:58:23.231Z,22.47
2022-11-14T15:00:57.129Z,19.27
2022-11-14T15:03:26.257Z,20.63
2022-11-14T15:06:01.622Z,20.00
2022-11-14T15:08:30.404Z,20.00
2022-11-14T15:11:00.138Z,18.23
2022-11-14T15:13:29.645Z,19.03
2022-11-14T15:15:57.849Z,19.00
2022-11-14T15:18:28.568Z,18.00
2022-11-14T15:21:15.118Z,19.13
2022-11-14T15:23:42.272Z,19.27
2022-11-14T15:26:17.940Z,19.50
2022-11-14T15:28:45.407Z,18.67
2022-11-14T15:31:22.425Z,19.57
2022-11-14T15:34:29.631Z,19.20
2022-11-14T15:37:21.070Z,19.47
2022-11-14T15:39:48.599Z,19.67
2022-11-14T15:42:24.207Z,19.30
2022-11-14T15:44:51.689Z,24.20
2022-11-14T15:47:25.477Z,18.53
2022-11-14T15:49:59.369Z,18.17
2022-11-14T15:52:29.523Z,19.40
2022-11-14T15:54:56.674Z,20.60
2022-11-14T15:57:23.757Z,19.23
2022-11-14T15:59:50.828Z,22.03
2022-11-14T16:02:29.451Z,23.90
2022-11-14T16:04:57.461Z,21.20
2022-11-14T16:07:24.261Z,19.77
2022-11-14T16:09:51.324Z,18.93
2022-11-14T16:12:18.411Z,20.50
2022-11-14T16:14:45.679Z,18.63
2022-11-14T16:17:17.210Z,17.37
2022-11-14T16:19:44.733Z,17.70
2022-11-14T16:22:15.910Z,18.57
2022-11-14T16:24:43.040Z,17.57
2022-11-14T16:27:09.947Z,17.27
2022-11-14T16:29:37.076Z,19.53
2022-11-14T16:32:03.864Z,17.33
2022-11-14T16:34:30.970Z,17.77
2022-11-14T16:37:00.486Z,17.77
2022-11-14T16:39:27.730Z,17.23
2022-11-14T16:42:01.397Z,21.20
2022-11-14T16:44:28.259Z,18.93
2022-11-14T16:46:55.364Z,19.77
2022-11-14T16:49:22.028Z,19.70
2022-11-14T16:51:50.592Z,20.90
2022-11-14T16:54:20.742Z,20.03
2022-11-14T16:56:48.102Z,17.07
2022-11-14T16:59:14.987Z,18.87
2022-11-14T17:01:42.475Z,19.57
2022-11-14T17:04:09.654Z,16.43
2022-11-14T17:06:36.777Z,17.63
2022-11-14T17:09:03.789Z,18.67
2022-11-14T17:11:30.615Z,18.17
2022-11-14T17:13:57.733Z,17.63
2022-11-14T17:16:24.768Z,18.07
2022-11-14T17:18:55.543Z,17.90
2022-11-14T17:21:23.568Z,17.87
2022-11-14T17:23:57.370Z,18.53
2022-11-14T17:26:24.317Z,19.00
2022-11-14T17:28:51.425Z,18.23
2022-11-14T17:31:18.862Z,17.07
2022-11-14T17:33:55.375Z,16.67
2022-11-14T17:36:23.628Z,20.13
2022-11-14T17:38:50.530Z,18.30
2022-11-14T17:41:17.884Z,18.93
2022-11-14T17:43:45.085Z,21.23
2022-11-14T17:46:16.068Z,17.87
2022-11-14T17:48:44.358Z,20.70
2022-11-14T17:51:13.257Z,16.57
2022-11-14T17:53:40.822Z,18.30
2022-11-14T17:56:08.031Z,17.27
2022-11-14T17:58:35.243Z,19.47
2022-11-14T18:01:02.396Z,14.10
2022-11-14T18:03:29.115Z,15.23
2022-11-14T18:06:06.226Z,17.50
2022-11-14T18:08:34.167Z,14.77
2022-11-14T18:11:02.419Z,17.10
2022-11-14T18:13:29.451Z,18.37
2022-11-14T18:16:01.069Z,16.53
2022-11-14T18:18:28.465Z,15.73
2022-11-14T18:20:55.354Z,15.53
2022-11-14T18:23:22.439Z,17.57
2022-11-14T18:25:49.493Z,16.53
2022-11-14T18:28:16.428Z,14.63
2022-11-14T18:30:43.582Z,13.27
2022-11-14T18:33:10.279Z,14.27
2022-11-14T18:35:36.950Z,16.47
2022-11-14T18:38:04.068Z,13.87
2022-11-14T18:40:31.167Z,16.50
2022-11-14T18:42:58.296Z,14.70
2022-11-14T18:45:25.401Z,15.07
2022-11-14T18:47:52.498Z,17.37
2022-11-14T18:50:19.231Z,17.17
2022-11-14T18:52:46.282Z,13.63
2022-11-14T18:55:13.397Z,15.57
2022-11-14T18:57:40.465Z,15.70
2022-11-14T19:00:07.912Z,15.53
2022-11-14T19:02:35.061Z,14.13
2022-11-14T19:05:01.839Z,13.73
2022-11-14T19:07:30.162Z,15.33
2022-11-14T19:09:57.301Z,14.33
2022-11-14T19:12:24.868Z,13.10
2022-11-14T19:14:52.941Z,14.30
2022-11-14T19:17:23.855Z,13.83
2022-11-14T19:19:53.383Z,15.37
2022-11-14T19:22:21.032Z,13.27
2022-11-14T19:24:48.101Z,15.20
2022-11-14T19:27:15.816Z,14.87
2022-11-14T19:29:42.533Z,13.87
2022-11-14T19:32:09.277Z,15.30
2022-11-14T19:34:36.333Z,14.93
2022-11-14T19:37:03.158Z,13.50
2022-11-14T19:39:30.631Z,15.70
2022-11-14T19:41:57.296Z,14.50
2022-11-14T19:44:24.400Z,14.70
2022-11-14T19:46:51.526Z,15.50
2022-11-14T19:49:18.592Z,14.03
2022-11-14T19:51:45.807Z,12.33
2022-11-14T19:54:12.888Z,15.07
2022-11-14T19:56:40.193Z,15.30
2022-11-14T19:59:13.768Z,11.87
2022-11-14T20:01:42.231Z,14.23
2022-11-14T20:04:12.140Z,12.80
2022-11-14T20:06:40.113Z,13.37
2022-11-14T20:09:09.158Z,12.53
2022-11-14T20:11:36.551Z,14.40
2022-11-14T20:14:05.504Z,13.20
2022-11-14T20:16:35.058Z,14.10
2022-11-14T20:19:02.513Z,12.83
2022-11-14T20:21:31.751Z,13.20
2022-11-14T20:23:59.028Z,14.10
2022-11-14T20:26:26.259Z,11.17
2022-11-14T20:28:53.969Z,12.50
2022-11-14T20:31:29.847Z,13.87
2022-11-14T20:33:57.139Z,12.50
2022-11-14T20:36:32.067Z,12.70
2022-11-14T20:39:05.985Z,13.60
2022-11-14T20:41:33.545Z,11.17
2022-11-14T20:44:01.997Z,12.50
2022-11-14T20:46:29.607Z,13.63
2022-11-14T20:48:56.992Z,12.87
2022-11-14T20:51:25.652Z,11.43
2022-11-14T20:53:55.042Z,11.67
2022-11-14T20:56:22.735Z,11.27
2022-11-14T20:58:56.200Z,12.17
2022-11-14T21:01:23.378Z,11.20
2022-11-14T21:03:50.235Z,11.80
2022-11-14T21:06:17.974Z,13.03
2022-11-14T21:08:44.715Z,10.47
2022-11-14T21:11:14.131Z,9.93
2022-11-14T21:13:56.525Z,12.40
2022-11-14T21:16:38.756Z,11.10
2022-11-14T21:19:07.529Z,10.30
2022-11-14T21:21:36.179Z,10.57
2022-11-14T21:24:03.162Z,11.53
2022-11-14T21:26:36.199Z,12.47
2022-11-14T21:29:06.046Z,9.80
2022-11-14T21:31:37.723Z,11.40
2022-11-14T21:34:12.984Z,11.77
2022-11-14T21:36:47.309Z,10.40
2022-11-14T21:39:16.395Z,11.23
2022-11-14T21:41:45.561Z,13.03
2022-11-14T21:44:14.710Z,10.93
2022-11-14T21:46:41.779Z,13.87
2022-11-14T21:49:08.986Z,10.30
2022-11-14T21:51:36.094Z,13.00
2022-11-14T21:54:02.892Z,12.30
2022-11-14T21:56:31.666Z,13.60
2022-11-14T21:59:21.336Z,9.97
2022-11-14T22:02:08.257Z,9.63
2022-11-14T22:04:36.028Z,11.27
2022-11-14T22:07:04.862Z,11.63
2022-11-14T22:09:32.509Z,10.30
2022-11-14T22:11:59.896Z,9.63
2022-11-14T22:14:27.225Z,10.67
2022-11-14T22:16:54.298Z,9.50
2022-11-14T22:19:21.587Z,10.67
2022-11-14T22:21:48.651Z,10.47
2022-11-14T22:24:15.308Z,10.13
2022-11-14T22:26:41.972Z,8.90
2022-11-14T22:29:09.167Z,10.60
2022-11-14T22:31:37.427Z,9.50
2022-11-14T22:34:04.387Z,9.13
2022-11-14T22:36:31.446Z,9.93
2022-11-14T22:38:58.135Z,11.13
2022-11-14T22:41:32.639Z,10.23
2022-11-14T22:44:00.353Z,8.93
2022-11-14T22:46:27.807Z,11.33
2022-11-14T22:48:55.359Z,11.10
2022-11-14T22:51:24.313Z,10.67
2022-11-14T22:53:53.718Z,9.37
2022-11-14T22:56:22.835Z,10.57
2022-11-14T22:58:49.981Z,10.07
2022-11-14T23:01:22.722Z,10.80
2022-11-14T23:04:02.977Z,10.07
2022-11-14T23:06:31.297Z,10.70
2022-11-14T23:08:58.653Z,9.13
2022-11-14T23:11:27.949Z,11.40
2022-11-14T23:13:56.155Z,12.50
2022-11-14T23:16:31.242Z,15.27
2022-11-14T23:19:00.639Z,11.93
2022-11-14T23:21:33.979Z,9.30
2022-11-14T23:24:04.183Z,8.63
2022-11-14T23:26:32.411Z,11.23
2022-11-14T23:28:59.601Z,13.90
2022-11-14T23:31:26.978Z,10.63
2022-11-14T23:33:55.142Z,13.13
2022-11-14T23:36:22.263Z,10.40
2022-11-14T23:38:49.249Z,11.17
2022-11-14T23:41:19.400Z,8.73
2022-11-14T23:43:46.802Z,10.43
2022-11-14T23:46:14.094Z,10.40
2022-11-14T23:48:40.929Z,9.90
2022-11-14T23:51:08.071Z,12.50
2022-11-14T23:53:34.789Z,10.47
2022-11-14T23:56:02.279Z,9.70
2022-11-14T23:58:30.160Z,12.90
